sensor_id;sensor_type;location;lat;lon;timestamp;temperature;humidity
26272;DHT22;13997;48.902;12.472;2023-04-15T00:01:22;179.30;2252.80
26272;DHT22;13997;48.902;12.472;2023-04-15T00:03:50;179.30;2252.80
26272;DHT22;13997;48.902;12.472;2023-04-15T00:06:17;179.30;2252.80
26272;DHT22;13997;48.902;12.472;2023-04-15T00:08:44;179.30;2252.80
26272;DHT22;13997;48.902;12.472;2023-04-15T00:11:10;179.30;2252.80
26272;DHT22;13997;48.902;12.472;2023-04-15T00:13:35;179.30;2252.80
26272;DHT22;13997;48.902;12.472;2023-04-15T00:16:02;179.20;2252.80
26272;DHT22;13997;48.902;12.472;2023-04-15T00:18:28;179.20;2252.80
26272;DHT22;13997;48.902;12.472;2023-04-15T00:20:57;179.20;2252.80
26272;DHT22;13997;48.902;12.472;2023-04-15T00:23:23;179.20;2252.80
26272;DHT22;13997;48.902;12.472;2023-04-15T00:25:48;179.20;2252.80
26272;DHT22;13997;48.902;12.472;2023-04-15T00:28:14;179.20;2252.80
26272;DHT22;13997;48.902;12.472;2023-04-15T00:30:40;179.20;2252.80
26272;DHT22;13997;48.902;12.472;2023-04-15T00:33:05;179.20;2252.80
26272;DHT22;13997;48.902;12.472;2023-04-15T00:35:32;179.20;2252.80
26272;DHT22;13997;48.902;12.472;2023-04-15T00:37:58;179.20;2252.80
26272;DHT22;13997;48.902;12.472;2023-04-15T00:40:24;179.20;2252.80
26272;DHT22;13997;48.902;12.472;2023-04-15T00:42:50;179.20;2252.80
26272;DHT22;13997;48.902;12.472;2023-04-15T00:45:16;179.20;2252.80
26272;DHT22;13997;48.902;12.472;2023-04-15T00:47:43;179.20;2252.80
26272;DHT22;13997;48.902;12.472;2023-04-15T00:50:09;179.20;2252.80
26272;DHT22;13997;48.902;12.472;2023-04-15T00:52:35;179.20;2252.80
26272;DHT22;13997;48.902;12.472;2023-04-15T00:55:02;179.20;2252.80
26272;DHT22;13997;48.902;12.472;2023-04-15T00:57:29;179.20;2252.80
26272;DHT22;13997;48.902;12.472;2023-04-15T00:59:55;154.50;2252.80
26272;DHT22;13997;48.902;12.472;2023-04-15T01:02:21;154.50;2252.80
26272;DHT22;13997;48.902;12.472;2023-04-15T01:04:47;154.50;2252.80
26272;DHT22;13997;48.902;12.472;2023-04-15T01:07:12;154.50;2252.80
26272;DHT22;13997;48.902;12.472;2023-04-15T01:09:38;154.50;2252.80
26272;DHT22;13997;48.902;12.472;2023-04-15T01:12:06;179.20;2252.80
26272;DHT22;13997;48.902;12.472;2023-04-15T01:14:34;179.20;2252.80
26272;DHT22;13997;48.902;12.472;2023-04-15T01:17:00;179.20;2252.80
26272;DHT22;13997;48.902;12.472;2023-04-15T01:19:26;179.20;2252.80
26272;DHT22;13997;48.902;12.472;2023-04-15T01:21:53;179.20;2252.80
26272;DHT22;13997;48.902;12.472;2023-04-15T01:24:19;179.20;2252.80
26272;DHT22;13997;48.902;12.472;2023-04-15T01:26:45;179.20;2252.80
26272;DHT22;13997;48.902;12.472;2023-04-15T01:29:11;179.20;2252.80
26272;DHT22;13997;48.902;12.472;2023-04-15T01:31:37;179.20;2252.80
26272;DHT22;13997;48.902;12.472;2023-04-15T01:34:03;179.20;2252.80
26272;DHT22;13997;48.902;12.472;2023-04-15T01:36:29;179.20;2252.80
26272;DHT22;13997;48.902;12.472;2023-04-15T01:38:55;179.20;2252.80
26272;DHT22;13997;48.902;12.472;2023-04-15T01:41:25;179.20;2252.80
26272;DHT22;13997;48.902;12.472;2023-04-15T01:43:51;179.30;2252.80
26272;DHT22;13997;48.902;12.472;2023-04-15T01:46:17;179.30;2252.80
26272;DHT22;13997;48.902;12.472;2023-04-15T01:48:43;179.30;2252.80
26272;DHT22;13997;48.902;12.472;2023-04-15T01:51:09;179.30;2252.80
26272;DHT22;13997;48.902;12.472;2023-04-15T01:53:34;179.30;2252.80
26272;DHT22;13997;48.902;12.472;2023-04-15T01:56:00;179.30;2252.80
26272;DHT22;13997;48.902;12.472;2023-04-15T01:58:25;179.30;2252.80
26272;DHT22;13997;48.902;12.472;2023-04-15T02:00:51;179.30;2252.80
26272;DHT22;13997;48.902;12.472;2023-04-15T02:03:17;179.40;2252.80
26272;DHT22;13997;48.902;12.472;2023-04-15T02:05:42;179.40;2252.80
26272;DHT22;13997;48.902;12.472;2023-04-15T02:08:08;179.40;2252.80
26272;DHT22;13997;48.902;12.472;2023-04-15T02:10:34;179.40;2252.80
26272;DHT22;13997;48.902;12.472;2023-04-15T02:13:00;179.40;2252.80
26272;DHT22;13997;48.902;12.472;2023-04-15T02:15:25;179.40;2252.80
26272;DHT22;13997;48.902;12.472;2023-04-15T02:17:51;179.40;2252.80
26272;DHT22;13997;48.902;12.472;2023-04-15T02:20:19;179.40;2252.80
26272;DHT22;13997;48.902;12.472;2023-04-15T02:22:45;179.40;2252.80
26272;DHT22;13997;48.902;12.472;2023-04-15T02:25:13;179.30;2252.80
26272;DHT22;13997;48.902;12.472;2023-04-15T02:27:38;179.30;2252.80
26272;DHT22;13997;48.902;12.472;2023-04-15T02:30:04;179.30;2252.80
26272;DHT22;13997;48.902;12.472;2023-04-15T02:32:31;179.30;2252.80
26272;DHT22;13997;48.902;12.472;2023-04-15T02:35:01;179.30;2252.80
26272;DHT22;13997;48.902;12.472;2023-04-15T02:37:27;179.30;2252.80
26272;DHT22;13997;48.902;12.472;2023-04-15T02:39:54;179.30;2252.80
26272;DHT22;13997;48.902;12.472;2023-04-15T02:42:20;179.30;2252.80
26272;DHT22;13997;48.902;12.472;2023-04-15T02:44:46;179.30;2252.80
26272;DHT22;13997;48.902;12.472;2023-04-15T02:47:12;179.30;2252.80
26272;DHT22;13997;48.902;12.472;2023-04-15T02:49:38;179.30;2252.80
26272;DHT22;13997;48.902;12.472;2023-04-15T02:52:04;179.30;2252.80
26272;DHT22;13997;48.902;12.472;2023-04-15T02:54:30;179.30;2252.80
26272;DHT22;13997;48.902;12.472;2023-04-15T02:56:58;179.30;2252.80
26272;DHT22;13997;48.902;12.472;2023-04-15T02:59:24;179.20;2252.80
26272;DHT22;13997;48.902;12.472;2023-04-15T03:01:50;179.20;2252.80
26272;DHT22;13997;48.902;12.472;2023-04-15T03:04:15;179.20;2252.80
26272;DHT22;13997;48.902;12.472;2023-04-15T03:06:41;179.20;2252.80
26272;DHT22;13997;48.902;12.472;2023-04-15T03:09:07;179.20;2252.80
26272;DHT22;13997;48.902;12.472;2023-04-15T03:11:32;179.20;2252.80
26272;DHT22;13997;48.902;12.472;2023-04-15T03:14:00;179.20;2252.80
26272;DHT22;13997;48.902;12.472;2023-04-15T03:16:26;179.20;2252.80
26272;DHT22;13997;48.902;12.472;2023-04-15T03:18:51;179.20;2252.80
26272;DHT22;13997;48.902;12.472;2023-04-15T03:21:17;179.20;2252.80
26272;DHT22;13997;48.902;12.472;2023-04-15T03:23:44;179.20;2252.80
26272;DHT22;13997;48.902;12.472;2023-04-15T03:26:09;154.50;2252.80
26272;DHT22;13997;48.902;12.472;2023-04-15T03:28:47;154.50;2252.80
26272;DHT22;13997;48.902;12.472;2023-04-15T03:31:13;154.50;2252.80
26272;DHT22;13997;48.902;12.472;2023-04-15T03:33:38;154.50;2252.80
26272;DHT22;13997;48.902;12.472;2023-04-15T03:36:04;154.50;2252.80
26272;DHT22;13997;48.902;12.472;2023-04-15T03:38:30;154.40;2252.80
26272;DHT22;13997;48.902;12.472;2023-04-15T03:40:56;154.40;2252.80
26272;DHT22;13997;48.902;12.472;2023-04-15T03:43:21;154.40;2252.80
26272;DHT22;13997;48.902;12.472;2023-04-15T03:45:47;154.40;2252.80
26272;DHT22;13997;48.902;12.472;2023-04-15T03:48:12;154.40;2252.80
26272;DHT22;13997;48.902;12.472;2023-04-15T03:50:38;154.40;2252.80
26272;DHT22;13997;48.902;12.472;2023-04-15T03:53:06;154.40;2252.80
26272;DHT22;13997;48.902;12.472;2023-04-15T03:55:31;154.40;2252.80
26272;DHT22;13997;48.902;12.472;2023-04-15T03:57:57;154.40;2252.80
26272;DHT22;13997;48.902;12.472;2023-04-15T04:00:22;154.40;2252.80
26272;DHT22;13997;48.902;12.472;2023-04-15T04:02:48;154.40;2252.80
26272;DHT22;13997;48.902;12.472;2023-04-15T04:05:13;154.40;2252.80
26272;DHT22;13997;48.902;12.472;2023-04-15T04:07:39;154.30;2252.80
26272;DHT22;13997;48.902;12.472;2023-04-15T04:10:05;154.30;2252.80
26272;DHT22;13997;48.902;12.472;2023-04-15T04:12:31;154.30;2252.80
26272;DHT22;13997;48.902;12.472;2023-04-15T04:14:56;154.30;2252.80
26272;DHT22;13997;48.902;12.472;2023-04-15T04:17:22;154.30;2252.80
26272;DHT22;13997;48.902;12.472;2023-04-15T04:19:47;154.30;2252.80
26272;DHT22;13997;48.902;12.472;2023-04-15T04:22:13;154.30;2252.80
26272;DHT22;13997;48.902;12.472;2023-04-15T04:24:38;154.30;2252.80
26272;DHT22;13997;48.902;12.472;2023-04-15T04:27:04;154.30;2252.80
26272;DHT22;13997;48.902;12.472;2023-04-15T04:29:30;154.30;2252.80
26272;DHT22;13997;48.902;12.472;2023-04-15T04:31:55;154.20;2252.80
26272;DHT22;13997;48.902;12.472;2023-04-15T04:34:21;154.20;2252.80
26272;DHT22;13997;48.902;12.472;2023-04-15T04:36:46;154.20;2252.80
26272;DHT22;13997;48.902;12.472;2023-04-15T04:39:12;154.20;2252.80
26272;DHT22;13997;48.902;12.472;2023-04-15T04:41:37;154.20;2252.80
26272;DHT22;13997;48.902;12.472;2023-04-15T04:44:03;154.20;2252.80
26272;DHT22;13997;48.902;12.472;2023-04-15T04:46:29;154.20;2252.80
26272;DHT22;13997;48.902;12.472;2023-04-15T04:48:54;154.20;2252.80
26272;DHT22;13997;48.902;12.472;2023-04-15T04:51:20;154.20;2252.80
26272;DHT22;13997;48.902;12.472;2023-04-15T04:53:45;154.20;2252.80
26272;DHT22;13997;48.902;12.472;2023-04-15T04:56:11;154.20;2252.80
26272;DHT22;13997;48.902;12.472;2023-04-15T04:58:37;154.20;2252.80
26272;DHT22;13997;48.902;12.472;2023-04-15T05:01:02;154.10;2252.80
26272;DHT22;13997;48.902;12.472;2023-04-15T05:03:28;154.10;2252.80
26272;DHT22;13997;48.902;12.472;2023-04-15T05:05:54;154.10;2252.80
26272;DHT22;13997;48.902;12.472;2023-04-15T05:08:19;154.10;2252.80
26272;DHT22;13997;48.902;12.472;2023-04-15T05:10:45;154.10;2252.80
26272;DHT22;13997;48.902;12.472;2023-04-15T05:13:11;154.10;2252.80
26272;DHT22;13997;48.902;12.472;2023-04-15T05:15:37;154.10;2252.80
26272;DHT22;13997;48.902;12.472;2023-04-15T05:18:04;154.10;2252.80
26272;DHT22;13997;48.902;12.472;2023-04-15T05:20:29;154.10;2252.80
26272;DHT22;13997;48.902;12.472;2023-04-15T05:22:55;154.10;2252.80
26272;DHT22;13997;48.902;12.472;2023-04-15T05:25:20;154.00;2252.80
26272;DHT22;13997;48.902;12.472;2023-04-15T05:27:46;154.00;2252.80
26272;DHT22;13997;48.902;12.472;2023-04-15T05:30:12;154.00;2252.80
26272;DHT22;13997;48.902;12.472;2023-04-15T05:32:37;154.00;2252.80
26272;DHT22;13997;48.902;12.472;2023-04-15T05:35:03;154.00;2252.80
26272;DHT22;13997;48.902;12.472;2023-04-15T05:37:29;154.00;2252.80
26272;DHT22;13997;48.902;12.472;2023-04-15T05:39:55;154.00;2252.80
26272;DHT22;13997;48.902;12.472;2023-04-15T05:42:21;154.00;2252.80
26272;DHT22;13997;48.902;12.472;2023-04-15T05:44:46;154.00;2252.80
26272;DHT22;13997;48.902;12.472;2023-04-15T05:47:12;153.90;2252.80
26272;DHT22;13997;48.902;12.472;2023-04-15T05:49:37;153.90;2252.80
26272;DHT22;13997;48.902;12.472;2023-04-15T05:52:03;153.90;2252.80
26272;DHT22;13997;48.902;12.472;2023-04-15T05:54:29;153.90;2252.80
26272;DHT22;13997;48.902;12.472;2023-04-15T05:56:54;153.90;2252.80
26272;DHT22;13997;48.902;12.472;2023-04-15T05:59:21;153.90;2252.80
26272;DHT22;13997;48.902;12.472;2023-04-15T06:01:47;153.90;2252.80
26272;DHT22;13997;48.902;12.472;2023-04-15T06:04:13;153.90;2252.80
26272;DHT22;13997;48.902;12.472;2023-04-15T06:06:39;153.90;2252.80
26272;DHT22;13997;48.902;12.472;2023-04-15T06:09:05;153.90;2252.80
26272;DHT22;13997;48.902;12.472;2023-04-15T06:11:30;153.90;2252.80
26272;DHT22;13997;48.902;12.472;2023-04-15T06:13:56;154.00;2252.80
26272;DHT22;13997;48.902;12.472;2023-04-15T06:16:22;154.00;2252.80
26272;DHT22;13997;48.902;12.472;2023-04-15T06:18:48;154.00;2252.80
26272;DHT22;13997;48.902;12.472;2023-04-15T06:21:14;154.00;2252.80
26272;DHT22;13997;48.902;12.472;2023-04-15T06:23:40;153.90;2252.80
26272;DHT22;13997;48.902;12.472;2023-04-15T06:26:06;154.00;2252.80
26272;DHT22;13997;48.902;12.472;2023-04-15T06:28:32;153.90;2252.80
26272;DHT22;13997;48.902;12.472;2023-04-15T06:30:57;153.90;2252.80
26272;DHT22;13997;48.902;12.472;2023-04-15T06:33:23;153.90;2252.80
26272;DHT22;13997;48.902;12.472;2023-04-15T06:35:48;153.90;2252.80
26272;DHT22;13997;48.902;12.472;2023-04-15T06:38:14;153.90;2252.80
26272;DHT22;13997;48.902;12.472;2023-04-15T06:40:40;153.90;2252.80
26272;DHT22;13997;48.902;12.472;2023-04-15T06:43:06;153.90;2252.80
26272;DHT22;13997;48.902;12.472;2023-04-15T06:45:32;153.90;2252.80
26272;DHT22;13997;48.902;12.472;2023-04-15T06:47:58;153.90;2252.80
26272;DHT22;13997;48.902;12.472;2023-04-15T06:50:23;154.00;2252.80
26272;DHT22;13997;48.902;12.472;2023-04-15T06:52:49;154.00;2252.80
26272;DHT22;13997;48.902;12.472;2023-04-15T06:55:15;154.10;2252.80
26272;DHT22;13997;48.902;12.472;2023-04-15T06:57:40;154.10;2252.80
26272;DHT22;13997;48.902;12.472;2023-04-15T07:00:06;154.10;2252.80
26272;DHT22;13997;48.902;12.472;2023-04-15T07:02:33;154.10;2252.80
26272;DHT22;13997;48.902;12.472;2023-04-15T07:04:58;154.20;2252.80
26272;DHT22;13997;48.902;12.472;2023-04-15T07:07:24;154.20;2252.80
26272;DHT22;13997;48.902;12.472;2023-04-15T07:09:50;154.20;2252.80
26272;DHT22;13997;48.902;12.472;2023-04-15T07:12:16;154.10;2252.80
26272;DHT22;13997;48.902;12.472;2023-04-15T07:14:42;154.10;2252.80
26272;DHT22;13997;48.902;12.472;2023-04-15T07:17:08;154.10;2252.80
26272;DHT22;13997;48.902;12.472;2023-04-15T07:19:34;154.10;2252.80
26272;DHT22;13997;48.902;12.472;2023-04-15T07:22:00;154.10;2252.80
26272;DHT22;13997;48.902;12.472;2023-04-15T07:24:26;154.10;2252.80
26272;DHT22;13997;48.902;12.472;2023-04-15T07:26:53;154.10;2252.80
26272;DHT22;13997;48.902;12.472;2023-04-15T07:29:22;154.10;2252.80
26272;DHT22;13997;48.902;12.472;2023-04-15T07:31:47;154.10;2252.80
26272;DHT22;13997;48.902;12.472;2023-04-15T07:34:13;154.10;2252.80
26272;DHT22;13997;48.902;12.472;2023-04-15T07:36:39;154.10;2252.80
26272;DHT22;13997;48.902;12.472;2023-04-15T07:39:04;154.10;2252.80
26272;DHT22;13997;48.902;12.472;2023-04-15T07:41:30;154.10;2252.80
26272;DHT22;13997;48.902;12.472;2023-04-15T07:43:56;154.10;2252.80
26272;DHT22;13997;48.902;12.472;2023-04-15T07:46:22;154.10;2252.80
26272;DHT22;13997;48.902;12.472;2023-04-15T07:48:49;154.10;2252.80
26272;DHT22;13997;48.902;12.472;2023-04-15T07:51:15;154.10;2252.80
26272;DHT22;13997;48.902;12.472;2023-04-15T07:53:42;154.10;2252.80
26272;DHT22;13997;48.902;12.472;2023-04-15T07:56:08;154.20;2252.80
26272;DHT22;13997;48.902;12.472;2023-04-15T07:58:34;154.20;2252.80
26272;DHT22;13997;48.902;12.472;2023-04-15T08:01:00;154.20;2252.80
26272;DHT22;13997;48.902;12.472;2023-04-15T08:03:26;154.20;2252.80
26272;DHT22;13997;48.902;12.472;2023-04-15T08:05:51;154.20;2252.80
26272;DHT22;13997;48.902;12.472;2023-04-15T08:08:17;154.20;2252.80
26272;DHT22;13997;48.902;12.472;2023-04-15T08:10:42;154.20;2252.80
26272;DHT22;13997;48.902;12.472;2023-04-15T08:13:08;154.30;2252.80
26272;DHT22;13997;48.902;12.472;2023-04-15T08:15:34;154.20;2252.80
26272;DHT22;13997;48.902;12.472;2023-04-15T08:17:59;154.20;2252.80
26272;DHT22;13997;48.902;12.472;2023-04-15T08:20:25;154.20;2252.80
26272;DHT22;13997;48.902;12.472;2023-04-15T08:22:51;154.20;2252.80
26272;DHT22;13997;48.902;12.472;2023-04-15T08:25:18;154.20;2252.80
26272;DHT22;13997;48.902;12.472;2023-04-15T08:27:44;154.30;2252.80
26272;DHT22;13997;48.902;12.472;2023-04-15T08:30:11;154.30;2252.80
26272;DHT22;13997;48.902;12.472;2023-04-15T08:32:37;154.30;2252.80
26272;DHT22;13997;48.902;12.472;2023-04-15T08:35:03;154.30;2252.80
26272;DHT22;13997;48.902;12.472;2023-04-15T08:37:29;154.30;2252.80
26272;DHT22;13997;48.902;12.472;2023-04-15T08:39:54;154.30;2252.80
26272;DHT22;13997;48.902;12.472;2023-04-15T08:42:26;154.30;2252.80
26272;DHT22;13997;48.902;12.472;2023-04-15T08:44:52;154.30;2252.80
26272;DHT22;13997;48.902;12.472;2023-04-15T08:47:20;154.30;2252.80
26272;DHT22;13997;48.902;12.472;2023-04-15T08:49:47;154.40;2252.80
26272;DHT22;13997;48.902;12.472;2023-04-15T08:52:18;154.40;2252.80
26272;DHT22;13997;48.902;12.472;2023-04-15T08:54:44;154.50;2252.80
26272;DHT22;13997;48.902;12.472;2023-04-15T08:57:09;154.50;2252.80
26272;DHT22;13997;48.902;12.472;2023-04-15T08:59:35;179.20;2252.80
26272;DHT22;13997;48.902;12.472;2023-04-15T09:02:01;179.20;2252.80
26272;DHT22;13997;48.902;12.472;2023-04-15T09:04:28;179.20;2252.80
26272;DHT22;13997;48.902;12.472;2023-04-15T09:06:54;179.30;2252.80
26272;DHT22;13997;48.902;12.472;2023-04-15T09:09:19;179.30;2252.80
26272;DHT22;13997;48.902;12.472;2023-04-15T09:11:45;179.30;2252.80
26272;DHT22;13997;48.902;12.472;2023-04-15T09:14:11;179.30;2252.80
26272;DHT22;13997;48.902;12.472;2023-04-15T09:19:23;179.30;2252.80
26272;DHT22;13997;48.902;12.472;2023-04-15T09:21:52;179.30;2252.80
26272;DHT22;13997;48.902;12.472;2023-04-15T09:24:18;179.30;2252.80
26272;DHT22;13997;48.902;12.472;2023-04-15T09:26:44;179.30;2252.80
26272;DHT22;13997;48.902;12.472;2023-04-15T09:29:10;179.30;2252.80
26272;DHT22;13997;48.902;12.472;2023-04-15T09:31:40;179.30;2252.80
26272;DHT22;13997;48.902;12.472;2023-04-15T09:34:06;179.30;2252.80
26272;DHT22;13997;48.902;12.472;2023-04-15T09:39:16;179.40;2252.80
26272;DHT22;13997;48.902;12.472;2023-04-15T09:41:41;179.40;2252.80
26272;DHT22;13997;48.902;12.472;2023-04-15T09:44:29;179.50;2252.80
26272;DHT22;13997;48.902;12.472;2023-04-15T09:46:55;179.50;2252.80
26272;DHT22;13997;48.902;12.472;2023-04-15T09:49:20;179.60;2252.80
26272;DHT22;13997;48.902;12.472;2023-04-15T09:51:46;179.70;2252.80
26272;DHT22;13997;48.902;12.472;2023-04-15T09:54:11;179.80;2252.80
26272;DHT22;13997;48.902;12.472;2023-04-15T09:56:38;179.90;2252.80
26272;DHT22;13997;48.902;12.472;2023-04-15T09:59:07;179.90;2252.80
26272;DHT22;13997;48.902;12.472;2023-04-15T10:01:33;180.00;2252.80
26272;DHT22;13997;48.902;12.472;2023-04-15T10:04:02;180.00;2252.80
26272;DHT22;13997;48.902;12.472;2023-04-15T10:06:29;180.00;2252.80
26272;DHT22;13997;48.902;12.472;2023-04-15T10:08:57;180.00;2252.80
26272;DHT22;13997;48.902;12.472;2023-04-15T10:11:23;180.00;2252.80
26272;DHT22;13997;48.902;12.472;2023-04-15T10:13:50;204.80;2252.80
26272;DHT22;13997;48.902;12.472;2023-04-15T10:16:18;204.80;2252.80
26272;DHT22;13997;48.902;12.472;2023-04-15T10:18:46;204.80;2252.80
26272;DHT22;13997;48.902;12.472;2023-04-15T10:21:13;204.80;2252.80
26272;DHT22;13997;48.902;12.472;2023-04-15T10:23:45;204.80;2252.80
26272;DHT22;13997;48.902;12.472;2023-04-15T10:26:12;204.80;2252.80
26272;DHT22;13997;48.902;12.472;2023-04-15T10:28:39;204.80;2252.80
26272;DHT22;13997;48.902;12.472;2023-04-15T10:31:05;204.80;2252.80
26272;DHT22;13997;48.902;12.472;2023-04-15T10:33:32;180.10;2252.80
26272;DHT22;13997;48.902;12.472;2023-04-15T10:35:58;180.10;2252.80
26272;DHT22;13997;48.902;12.472;2023-04-15T10:41:22;204.80;2252.80
26272;DHT22;13997;48.902;12.472;2023-04-15T10:43:49;204.90;2252.80
26272;DHT22;13997;48.902;12.472;2023-04-15T10:46:39;205.00;2252.80
26272;DHT22;13997;48.902;12.472;2023-04-15T10:49:13;205.00;2252.80
26272;DHT22;13997;48.902;12.472;2023-04-15T10:51:41;205.10;2252.80
26272;DHT22;13997;48.902;12.472;2023-04-15T10:54:15;205.00;2252.80
26272;DHT22;13997;48.902;12.472;2023-04-15T10:56:43;204.90;2252.80
26272;DHT22;13997;48.902;12.472;2023-04-15T10:59:09;204.90;2252.80
26272;DHT22;13997;48.902;12.472;2023-04-15T11:01:55;204.90;2252.80
26272;DHT22;13997;48.902;12.472;2023-04-15T11:04:53;204.90;2252.80
26272;DHT22;13997;48.902;12.472;2023-04-15T11:13:14;204.90;2252.80
26272;DHT22;13997;48.902;12.472;2023-04-15T11:15:42;204.90;2252.80
26272;DHT22;13997;48.902;12.472;2023-04-15T11:18:18;205.00;2252.80
26272;DHT22;13997;48.902;12.472;2023-04-15T11:20:48;205.00;2252.80
26272;DHT22;13997;48.902;12.472;2023-04-15T11:23:17;205.00;2252.80
26272;DHT22;13997;48.902;12.472;2023-04-15T11:25:43;205.00;2252.80
26272;DHT22;13997;48.902;12.472;2023-04-15T11:28:10;205.00;2252.80
26272;DHT22;13997;48.902;12.472;2023-04-15T11:30:37;205.00;2252.80
26272;DHT22;13997;48.902;12.472;2023-04-15T11:33:05;205.00;2252.80
26272;DHT22;13997;48.902;12.472;2023-04-15T11:35:31;204.90;2252.80
26272;DHT22;13997;48.902;12.472;2023-04-15T11:37:57;204.90;2252.80
26272;DHT22;13997;48.902;12.472;2023-04-15T11:40:28;205.00;2252.80
26272;DHT22;13997;48.902;12.472;2023-04-15T11:45:28;205.00;2252.80
26272;DHT22;13997;48.902;12.472;2023-04-15T11:47:54;205.10;2252.80
26272;DHT22;13997;48.902;12.472;2023-04-15T11:50:29;205.10;2252.80
26272;DHT22;13997;48.902;12.472;2023-04-15T11:52:56;205.10;2252.80
26272;DHT22;13997;48.902;12.472;2023-04-15T11:55:25;205.10;2252.80
26272;DHT22;13997;48.902;12.472;2023-04-15T12:00:35;205.10;2252.80
26272;DHT22;13997;48.902;12.472;2023-04-15T12:03:23;205.10;2252.80
26272;DHT22;13997;48.902;12.472;2023-04-15T12:08:51;205.10;2252.80
26272;DHT22;13997;48.902;12.472;2023-04-15T12:11:40;205.00;2252.80
26272;DHT22;13997;48.902;12.472;2023-04-15T12:16:33;205.10;2252.80
26272;DHT22;13997;48.902;12.472;2023-04-15T12:18:59;205.10;2252.80
26272;DHT22;13997;48.902;12.472;2023-04-15T12:21:27;205.00;2252.80
26272;DHT22;13997;48.902;12.472;2023-04-15T12:23:54;205.00;2252.80
26272;DHT22;13997;48.902;12.472;2023-04-15T12:26:28;205.00;2252.80
26272;DHT22;13997;48.902;12.472;2023-04-15T12:29:15;205.00;2252.80
26272;DHT22;13997;48.902;12.472;2023-04-15T12:31:55;205.00;2252.80
26272;DHT22;13997;48.902;12.472;2023-04-15T12:34:32;205.00;2252.80
26272;DHT22;13997;48.902;12.472;2023-04-15T12:37:00;205.00;2252.80
26272;DHT22;13997;48.902;12.472;2023-04-15T12:39:28;205.00;2252.80
26272;DHT22;13997;48.902;12.472;2023-04-15T12:41:54;205.00;2252.80
26272;DHT22;13997;48.902;12.472;2023-04-15T12:44:22;205.00;2252.80
26272;DHT22;13997;48.902;12.472;2023-04-15T12:46:49;205.10;2252.80
26272;DHT22;13997;48.902;12.472;2023-04-15T12:49:15;205.10;2252.80
26272;DHT22;13997;48.902;12.472;2023-04-15T12:51:43;205.10;2252.80
26272;DHT22;13997;48.902;12.472;2023-04-15T12:54:09;205.20;2252.80
26272;DHT22;13997;48.902;12.472;2023-04-15T12:56:35;205.10;2252.80
26272;DHT22;13997;48.902;12.472;2023-04-15T12:59:01;205.10;2252.80
26272;DHT22;13997;48.902;12.472;2023-04-15T13:01:27;205.10;2252.80
26272;DHT22;13997;48.902;12.472;2023-04-15T13:03:52;205.00;2252.80
26272;DHT22;13997;48.902;12.472;2023-04-15T13:06:18;205.00;2252.80
26272;DHT22;13997;48.902;12.472;2023-04-15T13:08:44;205.00;2252.80
26272;DHT22;13997;48.902;12.472;2023-04-15T13:11:10;205.00;2252.80
26272;DHT22;13997;48.902;12.472;2023-04-15T13:13:36;205.10;2252.80
26272;DHT22;13997;48.902;12.472;2023-04-15T13:16:01;205.10;2252.80
26272;DHT22;13997;48.902;12.472;2023-04-15T13:18:27;205.10;2252.80
26272;DHT22;13997;48.902;12.472;2023-04-15T13:20:53;205.10;2252.80
26272;DHT22;13997;48.902;12.472;2023-04-15T13:23:19;205.10;2252.80
26272;DHT22;13997;48.902;12.472;2023-04-15T13:25:45;205.10;2252.80
26272;DHT22;13997;48.902;12.472;2023-04-15T13:28:11;205.10;2252.80
26272;DHT22;13997;48.902;12.472;2023-04-15T13:30:37;205.10;2252.80
26272;DHT22;13997;48.902;12.472;2023-04-15T13:33:04;205.00;2252.80
26272;DHT22;13997;48.902;12.472;2023-04-15T13:35:31;205.00;2252.80
26272;DHT22;13997;48.902;12.472;2023-04-15T13:37:57;205.00;2252.80
26272;DHT22;13997;48.902;12.472;2023-04-15T13:40:22;205.00;2252.80
26272;DHT22;13997;48.902;12.472;2023-04-15T13:42:48;205.00;2252.80
26272;DHT22;13997;48.902;12.472;2023-04-15T13:45:14;205.00;2252.80
26272;DHT22;13997;48.902;12.472;2023-04-15T13:47:40;205.00;2252.80
26272;DHT22;13997;48.902;12.472;2023-04-15T13:50:06;204.90;2252.80
26272;DHT22;13997;48.902;12.472;2023-04-15T13:52:32;204.90;2252.80
26272;DHT22;13997;48.902;12.472;2023-04-15T13:54:58;205.00;2252.80
26272;DHT22;13997;48.902;12.472;2023-04-15T13:57:24;204.90;2252.80
26272;DHT22;13997;48.902;12.472;2023-04-15T13:59:50;204.90;2252.80
26272;DHT22;13997;48.902;12.472;2023-04-15T14:02:15;204.90;2252.80
26272;DHT22;13997;48.902;12.472;2023-04-15T14:04:41;204.90;2252.80
26272;DHT22;13997;48.902;12.472;2023-04-15T14:07:06;204.90;2252.80
26272;DHT22;13997;48.902;12.472;2023-04-15T14:09:32;204.90;2252.80
26272;DHT22;13997;48.902;12.472;2023-04-15T14:11:58;204.90;2252.80
26272;DHT22;13997;48.902;12.472;2023-04-15T14:14:24;205.00;2252.80
26272;DHT22;13997;48.902;12.472;2023-04-15T14:16:50;205.00;2252.80
26272;DHT22;13997;48.902;12.472;2023-04-15T14:19:15;205.00;2252.80
26272;DHT22;13997;48.902;12.472;2023-04-15T14:21:41;205.10;2252.80
26272;DHT22;13997;48.902;12.472;2023-04-15T14:24:07;205.10;2252.80
26272;DHT22;13997;48.902;12.472;2023-04-15T14:26:32;205.10;2252.80
26272;DHT22;13997;48.902;12.472;2023-04-15T14:28:58;205.10;2252.80
26272;DHT22;13997;48.902;12.472;2023-04-15T14:31:24;205.10;2252.80
26272;DHT22;13997;48.902;12.472;2023-04-15T14:33:49;205.20;2252.80
26272;DHT22;13997;48.902;12.472;2023-04-15T14:36:15;205.20;2252.80
26272;DHT22;13997;48.902;12.472;2023-04-15T14:38:41;205.20;2252.80
26272;DHT22;13997;48.902;12.472;2023-04-15T14:41:07;205.20;2252.80
26272;DHT22;13997;48.902;12.472;2023-04-15T14:43:33;205.20;2252.80
26272;DHT22;13997;48.902;12.472;2023-04-15T14:45:59;205.20;2252.80
26272;DHT22;13997;48.902;12.472;2023-04-15T14:48:25;205.20;2252.80
26272;DHT22;13997;48.902;12.472;2023-04-15T14:50:51;205.20;2252.80
26272;DHT22;13997;48.902;12.472;2023-04-15T14:53:17;205.10;2252.80
26272;DHT22;13997;48.902;12.472;2023-04-15T14:55:43;205.10;2252.80
26272;DHT22;13997;48.902;12.472;2023-04-15T14:58:09;205.10;2252.80